Time;durP1;ratioP1;P1;durP2;ratioP2;P2;SDS_P1;SDS_P2;PMS_P1;PMS_P2;Temp;Humidity;BMP_temperature;BMP_pressure;BME280_temperature;BME280_humidity;BME280_pressure;Samples;Min_cycle;Max_cycle;Signal;HPM_P1;HPM_P2
2022/10/08 00:00:57;;;;;;;3.80;2.20;;;;;;;4.00;79.36;99885.58;102179;1294;62730;-18
2022/10/08 00:03:26;;;;;;;6.00;3.40;;;;;;;4.46;79.90;99885.57;101894;1297;62210;-18
2022/10/08 00:05:57;;;;;;;6.70;4.20;;;;;;;5.05;78.77;99883.72;101914;1302;75184;-18
2022/10/08 00:08:25;;;;;;;9.10;4.30;;;;;;;5.14;77.82;99881.06;101828;1292;75727;-18
2022/10/08 00:10:53;;;;;;;9.40;3.90;;;;;;;4.94;77.13;99878.15;101989;1302;74408;-19
2022/10/08 00:13:21;;;;;;;4.90;2.90;;;;;;;4.66;77.18;99877.50;101995;1300;61801;-18
2022/10/08 00:15:48;;;;;;;8.70;2.80;;;;;;;4.37;77.52;99873.58;101986;1301;63063;-18
2022/10/08 00:18:15;;;;;;;5.50;3.20;;;;;;;4.13;78.55;99869.42;102004;1297;76295;-18
2022/10/08 00:20:42;;;;;;;5.80;1.90;;;;;;;3.98;79.75;99864.67;102184;1301;76709;-18
2022/10/08 00:23:09;;;;;;;4.30;2.50;;;;;;;4.43;80.28;99864.02;101931;1301;75496;-18
2022/10/08 00:25:41;;;;;;;9.40;3.00;;;;;;;5.06;78.92;99859.56;102172;1300;61583;-18
2022/10/08 00:28:09;;;;;;;9.20;3.00;;;;;;;5.10;77.53;99857.49;101982;1294;62560;-19
2022/10/08 00:30:38;;;;;;;10.40;3.90;;;;;;;4.89;77.92;99854.98;102009;1304;75266;-18
2022/10/08 00:33:06;;;;;;;8.90;4.60;;;;;;;4.68;78.76;99853.34;102069;1302;75453;-19
2022/10/08 00:35:37;;;;;;;11.40;4.90;;;;;;;4.46;79.53;99846.00;101949;1296;74184;-18
2022/10/08 00:38:05;;;;;;;8.00;4.70;;;;;;;4.25;79.55;99841.09;101899;1304;61208;-18
2022/10/08 00:40:42;;;;;;;10.20;3.00;;;;;;;4.03;79.60;99845.59;102201;1302;61780;-18
2022/10/08 00:43:14;;;;;;;10.70;4.00;;;;;;;4.47;79.33;99841.69;101851;1302;76385;-18
2022/10/08 00:45:43;;;;;;;7.00;3.70;;;;;;;4.98;77.82;99839.27;101905;1302;76550;-19
2022/10/08 00:48:17;;;;;;;6.80;3.10;;;;;;;4.99;77.43;99838.19;102029;1297;75183;-18
2022/10/08 00:50:44;;;;;;;7.60;3.30;;;;;;;4.77;77.70;99835.91;102029;1302;62691;-18
2022/10/08 00:53:11;;;;;;;6.60;3.20;;;;;;;4.49;77.66;99833.34;102119;1301;62020;-18
2022/10/08 00:55:39;;;;;;;7.30;2.80;;;;;;;4.20;77.92;99828.91;102147;1302;75313;-18
2022/10/08 00:58:15;;;;;;;4.30;2.50;;;;;;;3.91;78.40;99827.36;101945;1293;74910;-18
2022/10/08 01:00:43;;;;;;;6.40;2.10;;;;;;;3.69;79.19;99823.97;102059;1289;75208;-18
2022/10/08 01:03:10;;;;;;;9.20;2.10;;;;;;;4.08;79.28;99820.83;102249;1300;62763;-18
2022/10/08 01:05:49;;;;;;;4.60;2.20;;;;;;;4.63;78.15;99821.22;102224;1301;62863;-18
2022/10/08 01:08:35;;;;;;;17.00;2.20;;;;;;;4.70;77.38;99819.37;101915;1302;76533;-18
2022/10/08 01:11:17;;;;;;;8.90;2.50;;;;;;;4.47;77.45;99816.42;102096;1304;75751;-19
2022/10/08 01:14:08;;;;;;;8.90;3.20;;;;;;;4.15;77.72;99814.66;101953;1300;74174;-18
2022/10/08 01:16:45;;;;;;;4.40;3.10;;;;;;;3.86;78.53;99811.95;101861;1297;61157;-18
2022/10/08 01:19:31;;;;;;;9.00;3.00;;;;;;;3.59;78.97;99812.52;102004;1297;61105;-18
2022/10/08 01:22:07;;;;;;;3.90;1.80;;;;;;;3.40;79.56;99809.66;102230;1292;74101;-18
2022/10/08 01:27:31;;;;;;;7.90;3.00;;;;;;;4.58;78.00;99808.90;102230;1302;75254;-18
2022/10/08 01:30:01;;;;;;;8.40;2.90;;;;;;;4.57;77.32;99810.28;101952;1297;62746;-18
2022/10/08 01:32:29;;;;;;;7.20;4.20;;;;;;;4.35;77.66;99804.73;101995;1302;62961;-18
2022/10/08 01:35:01;;;;;;;7.30;4.20;;;;;;;4.08;78.10;99801.05;101917;1301;76401;-18
2022/10/08 01:37:30;;;;;;;6.60;4.10;;;;;;;3.82;78.84;99803.50;102012;1302;75908;-18
2022/10/08 01:39:59;;;;;;;6.00;3.40;;;;;;;3.58;79.24;99803.45;101994;1302;74039;-18
2022/10/08 01:42:26;;;;;;;5.10;2.10;;;;;;;3.40;79.65;99801.27;102034;1295;62959;-18
2022/10/08 01:44:57;;;;;;;11.60;5.00;;;;;;;3.80;79.73;99800.69;101961;1297;61619;-18
2022/10/08 01:47:26;;;;;;;19.10;5.40;;;;;;;4.39;78.66;99800.23;102016;1301;76509;-18
2022/10/08 01:50:04;;;;;;;7.50;4.40;;;;;;;4.47;77.71;99796.45;102019;1302;76757;-18
2022/10/08 01:52:35;;;;;;;7.80;3.60;;;;;;;4.26;77.50;99800.13;101901;1292;73781;-18
2022/10/08 01:55:04;;;;;;;6.70;3.90;;;;;;;3.99;77.60;99795.95;102166;1300;61336;-18
2022/10/08 01:57:31;;;;;;;5.30;3.40;;;;;;;3.71;77.90;99796.56;101855;1307;62871;-18
2022/10/08 02:00:05;;;;;;;7.60;3.30;;;;;;;3.46;78.46;99798.61;102191;1301;75398;-18
2022/10/08 02:02:37;;;;;;;4.30;2.30;;;;;;;3.26;79.35;99798.02;101890;1305;76791;-18
2022/10/08 02:05:05;;;;;;;6.90;3.60;;;;;;;3.69;79.47;99798.17;102030;1301;75175;-18
2022/10/08 02:07:35;;;;;;;6.50;3.50;;;;;;;4.28;78.30;99796.76;102114;1294;61512;-18
2022/10/08 02:10:09;;;;;;;6.90;3.00;;;;;;;4.37;77.59;99794.88;101928;1298;61813;-18
2022/10/08 02:12:39;;;;;;;7.60;3.20;;;;;;;4.16;77.35;99790.23;101936;1304;76691;-18
2022/10/08 02:15:32;;;;;;;5.30;2.50;;;;;;;3.87;77.40;99788.35;102005;1295;76777;-19
2022/10/08 02:18:26;;;;;;;6.20;2.50;;;;;;;3.55;78.30;99789.83;102219;1300;75193;-18
2022/10/08 02:20:58;;;;;;;5.30;3.60;;;;;;;3.31;78.99;99787.37;102011;1302;62007;-18
2022/10/08 02:23:31;;;;;;;8.50;2.30;;;;;;;3.14;79.78;99790.08;102047;1303;61313;-18
2022/10/08 02:25:59;;;;;;;7.90;2.80;;;;;;;3.62;80.11;99785.95;102041;1302;76731;-18
2022/10/08 02:28:36;;;;;;;9.70;3.30;;;;;;;4.19;78.72;99783.05;102154;1302;76485;-18
2022/10/08 02:31:14;;;;;;;6.70;2.40;;;;;;;4.25;78.16;99786.39;102132;1300;75351;-18
2022/10/08 02:33:45;;;;;;;6.60;3.20;;;;;;;4.04;77.59;99783.01;101927;1302;61909;-18
2022/10/08 02:36:12;;;;;;;6.40;3.30;;;;;;;3.78;78.05;99779.66;101259;1301;1106267;-19
2022/10/08 02:38:44;;;;;;;5.00;2.90;;;;;;;3.53;78.60;99781.84;101905;1298;76436;-18
2022/10/08 02:41:11;;;;;;;7.30;3.80;;;;;;;3.29;79.06;99780.91;101975;1301;75477;-18
2022/10/08 02:43:41;;;;;;;7.50;2.00;;;;;;;3.10;79.77;99782.48;101866;1300;73438;-18
2022/10/08 02:46:17;;;;;;;5.50;2.90;;;;;;;3.52;80.13;99784.27;101937;1301;62117;-18
2022/10/08 02:48:47;;;;;;;5.50;2.30;;;;;;;4.15;79.02;99782.38;101964;1301;61183;-18
2022/10/08 02:51:14;;;;;;;6.10;1.90;;;;;;;4.24;77.97;99784.55;101934;1304;76638;-18
2022/10/08 02:53:42;;;;;;;5.70;2.30;;;;;;;4.09;78.18;99782.45;101894;1303;76639;-18
2022/10/08 02:56:20;;;;;;;5.20;2.90;;;;;;;3.91;79.07;99783.06;102048;1302;75046;-18
2022/10/08 02:58:47;;;;;;;10.50;3.30;;;;;;;3.68;79.64;99782.27;101962;1303;61997;-18
2022/10/08 03:01:25;;;;;;;4.50;3.00;;;;;;;3.47;79.69;99778.16;102092;1302;62592;-18
2022/10/08 03:03:59;;;;;;;4.30;2.50;;;;;;;3.26;79.95;99777.23;101921;1302;75610;-18
2022/10/08 03:06:26;;;;;;;4.80;3.10;;;;;;;3.75;79.70;99773.73;102026;1300;76658;-18
2022/10/08 03:08:54;;;;;;;5.90;2.80;;;;;;;4.32;78.17;99773.89;102110;1304;74297;-18
2022/10/08 03:11:22;;;;;;;10.70;2.50;;;;;;;4.37;77.24;99771.46;101875;1302;62900;-20
2022/10/08 03:13:49;;;;;;;6.20;2.40;;;;;;;4.14;76.88;99767.31;102047;1301;62939;-18
2022/10/08 03:16:20;;;;;;;9.40;3.10;;;;;;;3.85;77.12;99766.61;101916;1305;76386;-18
2022/10/08 03:18:47;;;;;;;5.30;3.40;;;;;;;3.54;77.61;99767.36;101962;1303;76708;-18
2022/10/08 03:21:14;;;;;;;7.90;2.70;;;;;;;3.25;78.03;99765.45;101959;1302;73972;-18
2022/10/08 03:23:41;;;;;;;7.90;2.70;;;;;;;2.97;78.48;99760.87;102080;1303;61312;-18
2022/10/08 03:26:08;;;;;;;4.70;1.70;;;;;;;2.75;79.16;99758.98;102038;1301;62558;-18
2022/10/08 03:28:35;;;;;;;7.60;2.50;;;;;;;3.13;79.52;99757.69;101941;1297;75653;-18
2022/10/08 03:31:04;;;;;;;7.10;2.70;;;;;;;3.71;78.39;99756.39;102138;1301;76679;-18
2022/10/08 03:33:32;;;;;;;3.60;1.90;;;;;;;3.79;77.58;99756.23;102113;1301;75219;-18
2022/10/08 03:35:59;;;;;;;3.00;2.10;;;;;;;3.61;77.49;99760.73;101874;1304;62909;-18
2022/10/08 03:38:26;;;;;;;7.70;2.20;;;;;;;3.36;78.00;99760.53;102079;1302;62560;-19
2022/10/08 03:40:57;;;;;;;5.80;2.50;;;;;;;3.11;78.50;99756.90;101987;1301;76442;-18
2022/10/08 03:43:31;;;;;;;4.70;2.30;;;;;;;2.88;79.12;99755.39;101900;1303;74869;-18
2022/10/08 03:45:58;;;;;;;6.20;1.60;;;;;;;2.68;79.78;99753.38;101887;1298;75165;-18
2022/10/08 03:48:26;;;;;;;3.50;2.50;;;;;;;3.11;79.99;99746.61;102173;1302;61260;-18
2022/10/08 03:51:01;;;;;;;5.10;2.70;;;;;;;3.71;78.81;99746.77;101897;1305;61792;-18
2022/10/08 03:53:30;;;;;;;7.30;2.30;;;;;;;3.80;77.84;99747.77;102103;1296;76417;-18
2022/10/08 03:56:02;;;;;;;3.50;2.40;;;;;;;3.59;77.73;99743.48;101951;1301;75996;-18
2022/10/08 03:58:29;;;;;;;3.20;2.00;;;;;;;3.32;78.20;99740.79;101937;1303;73918;-18
2022/10/08 04:00:57;;;;;;;5.50;2.00;;;;;;;3.06;78.56;99737.71;102011;1300;61063;-18
2022/10/08 04:03:24;;;;;;;5.70;2.30;;;;;;;2.81;79.01;99736.10;102057;1305;62921;-19
2022/10/08 04:05:51;;;;;;;4.10;1.40;;;;;;;2.62;79.95;99735.29;102050;1300;76163;-18
2022/10/08 04:08:18;;;;;;;4.20;2.00;;;;;;;3.00;80.00;99735.70;102120;1302;76728;-18
2022/10/08 04:10:45;;;;;;;10.80;5.00;;;;;;;3.60;79.01;99732.45;102108;1300;72764;-18
2022/10/08 04:13:16;;;;;;;8.00;3.80;;;;;;;3.72;78.24;99734.70;102075;1289;62509;-18
2022/10/08 04:15:44;;;;;;;5.60;3.20;;;;;;;3.57;78.51;99739.79;101860;1304;62854;-18
2022/10/08 04:18:12;;;;;;;6.60;3.30;;;;;;;3.36;78.49;99741.33;102229;1300;76257;-18
2022/10/08 04:20:40;;;;;;;4.60;2.70;;;;;;;3.12;79.09;99741.58;102043;1297;76760;-18
2022/10/08 04:23:07;;;;;;;7.10;2.30;;;;;;;2.94;80.04;99741.77;102187;1301;74985;-18
2022/10/08 04:25:35;;;;;;;6.30;1.80;;;;;;;2.80;80.54;99739.36;102090;1301;62723;-18
2022/10/08 04:28:03;;;;;;;12.90;2.40;;;;;;;3.28;80.70;99741.48;101978;1302;62578;-18
2022/10/08 04:30:30;;;;;;;4.90;2.60;;;;;;;3.93;79.62;99738.11;101950;1301;75370;-19
2022/10/08 04:32:57;;;;;;;6.00;3.60;;;;;;;4.09;79.02;99741.23;102170;1302;76816;-18
2022/10/08 04:35:24;;;;;;;6.60;2.80;;;;;;;3.97;78.60;99740.70;102110;1302;74683;-18
2022/10/08 04:37:51;;;;;;;4.60;2.80;;;;;;;3.76;78.87;99740.91;102053;1302;62624;-18
2022/10/08 04:40:18;;;;;;;11.50;2.90;;;;;;;3.55;79.46;99742.94;102185;1302;61790;-18
2022/10/08 04:42:50;;;;;;;4.30;2.50;;;;;;;3.36;80.16;99741.14;102140;1295;75045;-18
2022/10/08 04:45:17;;;;;;;2.60;2.00;;;;;;;3.25;80.91;99738.84;101923;1302;76469;-18
2022/10/08 04:47:45;;;;;;;5.20;2.00;;;;;;;3.76;80.92;99733.70;102210;1302;73149;-18
2022/10/08 04:50:12;;;;;;;6.90;2.80;;;;;;;4.44;79.82;99740.21;102073;1301;62710;-18
2022/10/08 04:52:39;;;;;;;3.60;1.80;;;;;;;4.60;78.99;99738.12;102085;1300;61572;-18
2022/10/08 04:55:07;;;;;;;6.60;2.30;;;;;;;4.50;78.75;99734.41;102087;1303;76447;-18
2022/10/08 04:57:34;;;;;;;3.00;2.40;;;;;;;4.33;78.87;99735.21;101989;1301;76517;-18
2022/10/08 05:00:02;;;;;;;4.80;2.30;;;;;;;4.13;79.27;99737.29;102099;1293;74955;-18
2022/10/08 05:02:45;;;;;;;5.70;2.10;;;;;;;3.93;79.75;99734.88;101972;1302;62321;-18
2022/10/08 05:05:14;;;;;;;6.60;1.30;;;;;;;3.83;80.31;99735.13;102037;1301;62447;-18
2022/10/08 05:07:41;;;;;;;8.50;2.20;;;;;;;4.42;80.82;99734.25;102061;1300;76070;-18
2022/10/08 05:10:08;;;;;;;3.70;2.10;;;;;;;5.25;79.45;99735.25;102115;1299;74780;-18
2022/10/08 05:12:35;;;;;;;5.50;2.10;;;;;;;5.57;77.93;99734.54;102103;1302;75199;-19
2022/10/08 05:15:03;;;;;;;7.60;2.70;;;;;;;5.57;77.40;99735.12;102067;1301;61470;-18
2022/10/08 05:17:30;;;;;;;4.20;2.50;;;;;;;5.42;77.20;99732.86;102031;1300;61740;-18
2022/10/08 05:19:57;;;;;;;7.30;2.30;;;;;;;5.28;77.49;99737.38;101955;1308;75442;-18
2022/10/08 05:22:24;;;;;;;4.40;2.50;;;;;;;5.09;77.63;99743.74;102197;1301;75652;-18
2022/10/08 05:24:51;;;;;;;4.30;1.90;;;;;;;4.94;78.22;99742.92;102074;1305;75236;-18
2022/10/08 05:27:18;;;;;;;9.10;3.20;;;;;;;5.40;78.89;99741.42;101994;1300;62641;-18
2022/10/08 05:29:45;;;;;;;12.60;3.50;;;;;;;6.08;78.07;99741.70;102180;1299;62907;-19
2022/10/08 05:32:12;;;;;;;5.40;2.60;;;;;;;6.27;77.25;99735.73;102008;1301;76469;-18
2022/10/08 05:34:39;;;;;;;8.90;3.00;;;;;;;6.20;77.40;99738.84;102039;1302;76487;-18
2022/10/08 05:37:07;;;;;;;7.30;3.00;;;;;;;6.05;77.69;99735.96;102024;1304;75196;-18
2022/10/08 05:39:33;;;;;;;6.10;3.10;;;;;;;5.90;78.28;99734.14;102022;1301;61683;-18
2022/10/08 05:42:00;;;;;;;4.70;2.40;;;;;;;5.77;78.83;99733.73;102157;1298;62925;-18
2022/10/08 05:44:27;;;;;;;7.70;2.70;;;;;;;6.18;79.13;99729.79;102192;1302;75048;-18
2022/10/08 05:46:54;;;;;;;3.40;2.20;;;;;;;6.80;78.30;99729.09;102112;1292;75612;-18
2022/10/08 05:49:21;;;;;;;9.80;2.90;;;;;;;6.98;78.05;99731.70;102095;1302;74058;-19
2022/10/08 05:51:49;;;;;;;5.60;3.40;;;;;;;6.93;78.13;99729.92;102140;1302;62881;-18
2022/10/08 05:54:16;;;;;;;11.30;3.40;;;;;;;6.79;78.49;99734.35;102118;1302;61623;-18
2022/10/08 05:56:43;;;;;;;6.10;3.20;;;;;;;6.63;79.16;99729.83;101998;1302;76356;-18
2022/10/08 05:59:17;;;;;;;5.40;2.50;;;;;;;6.54;79.99;99731.54;102043;1302;75766;-18
2022/10/08 06:01:44;;;;;;;4.80;2.30;;;;;;;7.10;79.84;99731.08;102031;1301;75317;-18
2022/10/08 06:04:11;;;;;;;5.00;2.90;;;;;;;7.74;78.58;99730.20;102155;1302;61545;-19
2022/10/08 06:06:41;;;;;;;8.50;2.70;;;;;;;7.90;77.85;99725.63;102269;1292;61791;-19
2022/10/08 06:09:11;;;;;;;5.40;2.90;;;;;;;7.84;77.81;99723.90;102070;1302;76297;-18
2022/10/08 06:11:38;;;;;;;6.10;2.70;;;;;;;7.74;78.70;99721.77;101973;1300;76701;-18
2022/10/08 06:14:06;;;;;;;5.80;3.00;;;;;;;7.64;79.32;99722.52;102055;1295;73911;-19
2022/10/08 06:16:33;;;;;;;7.80;2.90;;;;;;;7.59;79.40;99725.36;101903;1301;64545;-19
2022/10/08 06:19:02;;;;;;;5.20;2.70;;;;;;;8.12;79.23;99723.64;102005;1302;61479;-19
2022/10/08 06:21:29;;;;;;;11.90;3.80;;;;;;;8.65;77.63;99725.31;102029;1305;76561;-18
2022/10/08 06:24:02;;;;;;;8.00;3.00;;;;;;;8.78;77.27;99722.21;102124;1301;76575;-18
2022/10/08 06:26:31;;;;;;;5.90;3.10;;;;;;;8.73;76.88;99721.70;102171;1302;75257;-18
2022/10/08 06:29:06;;;;;;;10.80;4.50;;;;;;;8.63;77.40;99722.30;101890;1299;61989;-18
2022/10/08 06:31:34;;;;;;;8.00;2.60;;;;;;;8.58;77.81;99722.29;101866;1303;63057;-19
2022/10/08 06:34:03;;;;;;;8.20;2.90;;;;;;;9.11;77.29;99716.84;102304;1302;76031;-19
2022/10/08 06:36:31;;;;;;;10.50;3.90;;;;;;;9.77;75.78;99717.04;102248;1300;75617;-19
2022/10/08 06:38:59;;;;;;;6.90;3.60;;;;;;;9.95;74.62;99708.89;102051;1304;75423;-18
2022/10/08 06:41:29;;;;;;;11.90;3.70;;;;;;;9.92;73.90;99708.09;101923;1304;63206;-19
2022/10/08 06:43:56;;;;;;;7.00;3.50;;;;;;;9.80;74.10;99706.77;102137;1302;62633;-19
2022/10/08 06:46:23;;;;;;;10.00;3.20;;;;;;;9.72;74.45;99706.45;102071;1301;76423;-19
2022/10/08 06:48:50;;;;;;;5.60;2.60;;;;;;;9.62;74.61;99707.46;102065;1299;76629;-18
2022/10/08 06:51:17;;;;;;;5.60;2.90;;;;;;;9.75;74.67;99707.83;102180;1302;74900;-18
2022/10/08 06:53:50;;;;;;;11.50;3.60;;;;;;;10.36;73.05;99701.24;102311;1299;61894;-18
2022/10/08 06:56:17;;;;;;;9.10;3.10;;;;;;;10.73;72.30;99705.11;101912;1303;61580;-16
2022/10/08 06:58:46;;;;;;;6.40;3.50;;;;;;;10.80;71.70;99704.30;102098;1300;76317;-17
2022/10/08 07:01:18;;;;;;;7.20;3.20;;;;;;;10.64;70.70;99705.73;102190;1307;76728;-17
2022/10/08 07:03:56;;;;;;;4.10;2.80;;;;;;;10.66;72.90;99707.88;101924;1305;74962;-17
2022/10/08 07:06:24;;;;;;;6.60;2.90;;;;;;;10.74;72.47;99705.04;101861;1306;61886;-17
2022/10/08 07:08:52;;;;;;;4.10;2.50;;;;;;;10.87;71.83;99702.16;102196;1288;62874;-17
2022/10/08 07:11:20;;;;;;;7.50;3.20;;;;;;;11.51;70.91;99696.44;101986;1299;76493;-17
2022/10/08 07:13:47;;;;;;;12.70;2.70;;;;;;;11.93;69.39;99690.89;102128;1301;75812;-17
2022/10/08 07:16:16;;;;;;;8.30;3.10;;;;;;;12.08;68.59;99691.14;102186;1303;75326;-16
2022/10/08 07:18:48;;;;;;;11.60;2.60;;;;;;;12.10;68.37;99690.33;102036;1292;61903;-16
2022/10/08 07:21:17;;;;;;;7.20;2.50;;;;;;;12.12;67.55;99684.13;101992;1303;62880;-17
2022/10/08 07:23:44;;;;;;;5.80;2.40;;;;;;;12.10;67.88;99681.09;101979;1305;75252;-17
2022/10/08 07:26:13;;;;;;;11.20;2.60;;;;;;;12.14;67.13;99676.58;102132;1302;76798;-17
2022/10/08 07:29:09;;;;;;;6.70;3.00;;;;;;;12.22;67.86;99673.05;102025;1299;74211;-17
2022/10/08 07:31:37;;;;;;;10.40;2.80;;;;;;;12.24;66.44;99669.91;101859;1304;61625;-17
2022/10/08 07:34:06;;;;;;;11.50;3.10;;;;;;;12.22;66.15;99670.27;102083;1302;62596;-17
2022/10/08 07:36:33;;;;;;;4.70;2.50;;;;;;;12.26;66.69;99667.81;101977;1304;75361;-17
2022/10/08 07:39:02;;;;;;;7.00;2.10;;;;;;;12.39;67.03;99667.67;102213;1294;75318;-17
2022/10/08 07:41:30;;;;;;;6.80;2.80;;;;;;;12.75;66.98;99667.62;101934;1303;74261;-17
2022/10/08 07:43:58;;;;;;;6.00;2.50;;;;;;;13.50;63.72;99658.77;102208;1297;61949;-17
2022/10/08 07:46:29;;;;;;;7.10;2.70;;;;;;;13.86;62.18;99654.52;102016;1299;62984;-17
2022/10/08 07:49:00;;;;;;;8.70;2.20;;;;;;;13.93;61.18;99650.11;101907;1299;76361;-17
2022/10/08 07:51:28;;;;;;;5.60;2.20;;;;;;;13.91;60.07;99645.92;102131;1299;75677;-17
2022/10/08 07:53:56;;;;;;;4.60;2.30;;;;;;;13.47;58.95;99648.00;101898;1304;74999;-17
2022/10/08 07:56:28;;;;;;;13.70;2.80;;;;;;;13.22;61.14;99648.02;102013;1297;61739;-17
2022/10/08 07:58:55;;;;;;;3.80;1.70;;;;;;;13.50;62.68;99646.19;102115;1301;62634;-17
2022/10/08 08:01:27;;;;;;;7.50;2.40;;;;;;;13.61;61.30;99646.01;102154;1302;76182;-17
2022/10/08 08:04:02;;;;;;;5.10;2.10;;;;;;;13.74;62.23;99643.84;102185;1301;76621;-17
2022/10/08 08:06:30;;;;;;;5.60;1.80;;;;;;;13.90;61.62;99641.27;101934;1296;74375;-17
2022/10/08 08:09:00;;;;;;;6.00;2.60;;;;;;;13.88;59.31;99640.23;102005;1305;61537;-17
2022/10/08 08:11:28;;;;;;;7.40;2.40;;;;;;;13.92;60.33;99633.95;102194;1302;61628;-17
2022/10/08 08:13:55;;;;;;;7.90;1.90;;;;;;;14.03;60.53;99636.64;102156;1294;75101;-17
2022/10/08 08:16:24;;;;;;;4.10;2.00;;;;;;;14.10;60.03;99632.89;102177;1302;76744;-17
2022/10/08 08:18:58;;;;;;;6.60;2.10;;;;;;;14.25;60.29;99634.10;102034;1298;74211;-17
2022/10/08 08:21:28;;;;;;;3.50;2.30;;;;;;;14.32;58.20;99629.23;102066;1301;61575;-18
2022/10/08 08:23:56;;;;;;;5.00;2.60;;;;;;;14.53;59.64;99626.17;101872;1298;61849;-17
2022/10/08 08:26:28;;;;;;;5.60;2.00;;;;;;;14.82;59.72;99626.61;102014;1295;76175;-17
2022/10/08 08:28:56;;;;;;;7.10;2.10;;;;;;;15.24;58.99;99626.23;101912;1299;76950;-17
2022/10/08 08:31:31;;;;;;;8.30;2.10;;;;;;;15.55;56.69;99617.41;101928;1298;75314;-17
2022/10/08 08:34:00;;;;;;;5.20;2.00;;;;;;;15.89;56.77;99622.43;102150;1300;61902;-17
2022/10/08 08:36:32;;;;;;;4.50;1.80;;;;;;;16.28;55.91;99621.02;101939;1299;61735;-17
2022/10/08 08:39:00;;;;;;;3.60;2.20;;;;;;;16.49;53.34;99621.73;101918;1299;76472;-17
2022/10/08 08:41:30;;;;;;;4.60;1.90;;;;;;;16.42;52.89;99621.46;102171;1299;76713;-17
2022/10/08 08:44:21;;;;;;;3.80;1.70;;;;;;;16.54;52.00;99619.46;102187;1299;72896;-17
2022/10/08 08:47:00;;;;;;;4.20;1.70;;;;;;;16.58;51.55;99619.10;101882;1304;62171;-18
2022/10/08 08:49:30;;;;;;;4.40;1.90;;;;;;;16.86;52.11;99617.63;101900;1303;62711;-17
2022/10/08 08:52:01;;;;;;;2.90;1.80;;;;;;;17.27;52.21;99611.83;101875;1304;74044;-17
2022/10/08 08:54:28;;;;;;;5.20;1.70;;;;;;;17.65;51.12;99610.12;102223;1300;77054;-17
2022/10/08 08:56:55;;;;;;;3.80;1.80;;;;;;;17.91;49.45;99602.83;101943;1294;74722;-17
2022/10/08 08:59:24;;;;;;;7.30;1.60;;;;;;;17.90;48.54;99603.15;101885;1296;61227;-18
2022/10/08 09:01:54;;;;;;;3.30;1.50;;;;;;;17.60;48.53;99599.20;101919;1299;62575;-17
2022/10/08 09:04:39;;;;;;;3.50;1.80;;;;;;;17.75;48.03;99598.73;101944;1299;76139;-17
2022/10/08 09:07:16;;;;;;;3.10;1.50;;;;;;;17.76;48.12;99594.90;102147;1302;76763;-17
2022/10/08 09:09:45;;;;;;;3.80;1.70;;;;;;;17.93;46.98;99587.24;101892;1297;74186;-17
2022/10/08 09:12:19;;;;;;;3.70;1.70;;;;;;;17.94;46.84;99585.54;101921;1305;61840;-17
2022/10/08 09:14:50;;;;;;;3.90;1.40;;;;;;;18.05;47.27;99586.70;101923;1299;61507;-17
2022/10/08 09:17:18;;;;;;;4.50;1.40;;;;;;;17.77;47.27;99587.45;101935;1304;74132;-17
2022/10/08 09:19:46;;;;;;;4.30;1.50;;;;;;;18.02;47.36;99586.77;101953;1303;76497;-17
2022/10/08 09:22:29;;;;;;;7.30;1.70;;;;;;;18.53;48.09;99584.48;102074;1302;74252;-17
2022/10/08 09:25:00;;;;;;;;;;;;;;;19.15;47.05;99586.17;102103;1296;62602;-17
2022/10/08 09:27:49;;;;;;;4.80;1.60;;;;;;;19.56;46.32;99581.21;102075;1299;61751;-17
2022/10/08 09:30:37;;;;;;;3.40;1.30;;;;;;;19.87;45.16;99581.63;102107;1296;76083;-17
2022/10/08 09:33:15;;;;;;;3.70;1.60;;;;;;;20.01;44.10;99580.11;102106;1295;76846;-17
2022/10/08 09:35:50;;;;;;;6.10;1.80;;;;;;;20.11;44.81;99580.52;102184;1299;74276;-17
2022/10/08 09:38:34;;;;;;;5.00;1.60;;;;;;;20.54;43.88;99579.56;102117;1301;62774;-17
2022/10/08 09:41:05;;;;;;;2.90;1.70;;;;;;;20.94;42.36;99577.47;102088;1299;62098;-17
2022/10/08 09:43:35;;;;;;;2.40;1.40;;;;;;;21.12;43.06;99570.25;101924;1304;76370;-17
2022/10/08 09:46:10;;;;;;;5.60;1.80;;;;;;;21.35;41.64;99569.47;101963;1304;75569;-17
2022/10/08 09:48:38;;;;;;;6.20;1.50;;;;;;;21.08;42.17;99563.17;101944;1297;74220;-17
2022/10/08 09:51:15;;;;;;;3.60;1.40;;;;;;;21.20;42.17;99561.13;102312;1300;62886;-17
2022/10/08 09:53:52;;;;;;;2.70;1.70;;;;;;;21.50;42.29;99556.02;101951;1291;61835;-18
2022/10/08 09:56:27;;;;;;;5.90;1.70;;;;;;;21.96;41.35;99552.95;102029;1300;76413;-18
2022/10/08 09:59:01;;;;;;;2.90;1.50;;;;;;;22.27;40.69;99549.02;101913;1305;74995;-18
2022/10/08 10:01:30;;;;;;;3.40;1.50;;;;;;;22.35;39.53;99552.53;101964;1302;75164;-18
2022/10/08 10:03:59;;;;;;;3.50;1.60;;;;;;;22.53;39.76;99545.73;101919;1298;61561;-18
2022/10/08 10:06:32;;;;;;;3.50;1.40;;;;;;;22.67;39.70;99544.79;102002;1302;62810;-18
2022/10/08 10:09:11;;;;;;;4.70;1.50;;;;;;;22.75;39.48;99541.49;101895;1299;75396;-18
2022/10/08 10:11:46;;;;;;;2.60;1.30;;;;;;;23.14;39.42;99537.11;102090;1299;74764;-18
2022/10/08 10:14:23;;;;;;;2.70;1.50;;;;;;;23.37;38.87;99527.19;102163;1302;75386;-18
2022/10/08 10:16:57;;;;;;;4.30;1.50;;;;;;;23.45;38.55;99526.43;101889;1299;61826;-18
2022/10/08 10:19:27;;;;;;;7.70;1.90;;;;;;;23.51;37.78;99520.79;101895;1298;61863;-18
2022/10/08 10:22:14;;;;;;;3.20;1.60;;;;;;;23.28;38.19;99518.41;101918;1299;76118;-19
2022/10/08 10:24:56;;;;;;;3.90;1.50;;;;;;;22.51;37.68;99511.82;101999;1302;74992;-19
2022/10/08 10:27:25;;;;;;;4.90;1.60;;;;;;;22.48;38.71;99508.02;101967;1298;73251;-18
2022/10/08 10:30:05;;;;;;;2.30;1.60;;;;;;;22.35;38.32;99506.63;102055;1299;62948;-18
2022/10/08 10:32:36;;;;;;;3.00;1.40;;;;;;;22.06;38.42;99496.92;101893;1298;61627;-18
2022/10/08 10:35:27;;;;;;;6.00;1.60;;;;;;;22.00;39.82;99493.03;101954;1304;75352;-18
2022/10/08 10:38:21;;;;;;;2.40;1.30;;;;;;;22.60;38.33;99481.52;102095;1301;75583;-18
2022/10/08 10:41:06;;;;;;;4.30;1.90;;;;;;;22.49;38.55;99482.67;102171;1293;73519;-19
2022/10/08 10:43:42;;;;;;;3.40;1.70;;;;;;;21.89;37.50;99478.94;101924;1304;62612;-18
2022/10/08 10:46:18;;;;;;;2.50;1.30;;;;;;;21.66;37.45;99474.70;102158;1294;61600;-18
2022/10/08 10:48:45;;;;;;;2.20;1.40;;;;;;;21.07;38.69;99474.66;102073;1305;76126;-18
2022/10/08 10:51:40;;;;;;;7.00;1.60;;;;;;;20.71;39.43;99473.87;102059;1302;77179;-18
2022/10/08 10:54:16;;;;;;;2.90;1.40;;;;;;;20.37;39.60;99473.98;102127;1300;75271;-18
2022/10/08 10:57:00;;;;;;;8.40;1.50;;;;;;;19.98;40.55;99472.95;102182;1299;61566;-18
2022/10/08 10:59:46;;;;;;;2.30;1.40;;;;;;;19.94;40.57;99467.23;102061;1294;62678;-18
2022/10/08 11:02:26;;;;;;;3.10;1.50;;;;;;;20.04;40.62;99463.84;102253;1298;75370;-18
2022/10/08 11:05:06;;;;;;;2.00;1.10;;;;;;;20.29;40.56;99460.92;102060;1301;77124;-18
2022/10/08 11:07:40;;;;;;;2.40;1.30;;;;;;;20.36;39.78;99456.63;101941;1301;75235;-18
2022/10/08 11:10:08;;;;;;;;;;;;;;;20.43;40.15;99450.20;102022;1301;62902;-18
2022/10/08 11:12:47;;;;;;;2.80;1.60;;;;;;;20.68;40.39;99441.05;102036;1291;62770;-19
2022/10/08 11:15:24;;;;;;;2.50;1.30;;;;;;;20.79;39.10;99437.15;102292;1298;76184;-18
2022/10/08 11:18:17;;;;;;;3.30;1.50;;;;;;;19.94;39.37;99429.01;101928;1304;76732;-18
2022/10/08 11:21:18;;;;;;;3.10;1.30;;;;;;;19.88;39.94;99430.49;102137;1294;75321;-18
2022/10/08 11:24:04;;;;;;;3.30;1.40;;;;;;;19.62;41.42;99419.73;102076;1301;62107;-18
2022/10/08 11:26:37;;;;;;;0.90;0.70;;;;;;;19.70;41.48;99419.19;102061;1302;61780;-18
2022/10/08 11:29:22;;;;;;;2.50;1.60;;;;;;;19.70;40.22;99419.79;102031;1297;76309;-18
2022/10/08 11:31:50;;;;;;;6.30;1.30;;;;;;;19.93;41.22;99414.08;102137;1295;76035;-18
2022/10/08 11:34:35;;;;;;;5.50;1.60;;;;;;;20.11;40.45;99408.92;102091;1302;75215;-18
2022/10/08 11:37:18;;;;;;;3.50;1.60;;;;;;;20.14;39.74;99398.90;101853;1304;63161;-18
2022/10/08 11:40:01;;;;;;;3.10;1.60;;;;;;;20.26;40.32;99393.80;102114;1296;62827;-18
2022/10/08 11:42:34;;;;;;;2.90;1.30;;;;;;;20.51;39.49;99388.80;102033;1302;76652;-18
2022/10/08 11:45:14;;;;;;;2.80;1.50;;;;;;;20.56;40.33;99385.52;102097;1301;75801;-18
2022/10/08 11:47:41;;;;;;;3.30;1.30;;;;;;;20.30;40.01;99385.72;102021;1302;75017;-18
2022/10/08 11:50:33;;;;;;;3.10;1.50;;;;;;;20.05;40.97;99380.77;102274;1302;62621;-19
2022/10/08 11:53:14;;;;;;;6.10;1.50;;;;;;;20.01;40.38;99377.92;102114;1304;62127;-18